Time;durP1;ratioP1;P1;durP2;ratioP2;P2;SDS_P1;SDS_P2;PMS_P1;PMS_P2;Temp;Humidity;BMP_temperature;BMP_pressure;BME280_temperature;BME280_humidity;BME280_pressure;Samples;Min_cycle;Max_cycle;Signal;HPM_P1;HPM_P2
2022/05/14 00:01:15;;;;;;;11.80;3.25;;;11.20;99.90;;;;;;4959023;28;20054;-83
2022/05/14 00:03:41;;;;;;;7.75;2.92;;;11.20;99.90;;;;;;4946586;29;20083;-83
2022/05/14 00:06:18;;;;;;;9.20;2.83;;;11.20;99.90;;;;;;4964044;28;20063;-83
2022/05/14 00:08:46;;;;;;;15.60;2.95;;;11.30;99.90;;;;;;4958880;28;20492;-82
2022/05/14 00:13:57;;;;;;;8.85;2.80;;;11.40;99.90;;;;;;4920782;29;20457;-82
2022/05/14 00:16:24;;;;;;;9.98;2.47;;;11.40;99.90;;;;;;4920763;29;20502;-82
2022/05/14 00:18:53;;;;;;;9.50;3.20;;;11.40;99.90;;;;;;4930376;28;20365;-82
2022/05/14 00:21:20;;;;;;;11.48;3.25;;;11.50;99.90;;;;;;4957426;28;20053;-82
2022/05/14 00:23:46;;;;;;;8.40;2.70;;;11.50;99.90;;;;;;4974850;28;20154;-82
2022/05/14 00:26:13;;;;;;;10.35;2.80;;;11.50;99.90;;;;;;4958428;28;20039;-84
2022/05/14 00:28:40;;;;;;;7.80;3.08;;;11.50;99.90;;;;;;4968671;28;20102;-83
2022/05/14 00:31:05;;;;;;;10.80;2.72;;;11.50;99.90;;;;;;4958844;28;20051;-82
2022/05/14 00:33:50;;;;;;;8.70;2.65;;;11.60;99.90;;;;;;4975890;28;20134;-82
2022/05/14 00:36:15;;;;;;;9.25;2.50;;;11.70;99.90;;;;;;4958565;28;20392;-83
2022/05/14 00:38:41;;;;;;;9.55;2.58;;;11.50;99.90;;;;;;4942763;28;20055;-82
2022/05/14 00:41:08;;;;;;;8.95;2.75;;;11.50;99.90;;;;;;4973895;28;20082;-83
2022/05/14 00:43:46;;;;;;;11.90;2.63;;;11.50;99.90;;;;;;4975936;28;20129;-82
2022/05/14 00:46:20;;;;;;;12.57;3.35;;;11.60;99.90;;;;;;4941711;29;20126;-83
2022/05/14 00:48:48;;;;;;;13.70;2.80;;;11.60;99.90;;;;;;4939805;29;20059;-82
2022/05/14 00:51:17;;;;;;;9.27;2.72;;;11.60;99.90;;;;;;4922815;29;20216;-87
2022/05/14 00:53:51;;;;;;;11.18;3.00;;;11.60;99.90;;;;;;4923041;29;20043;-82
2022/05/14 00:56:21;;;;;;;16.58;3.10;;;11.60;99.90;;;;;;4944183;29;20053;-82
2022/05/14 00:59:06;;;;;;;10.25;2.67;;;11.70;99.90;;;;;;4967698;28;20427;-82
2022/05/14 01:01:32;;;;;;;10.40;2.67;;;11.60;99.90;;;;;;4957915;28;20129;-82
2022/05/14 01:03:58;;;;;;;11.70;2.97;;;11.60;99.90;;;;;;4945374;29;20078;-82
2022/05/14 01:06:26;;;;;;;11.75;3.00;;;11.70;99.90;;;;;;4947657;28;20055;-82
2022/05/14 01:08:52;;;;;;;12.77;3.65;;;11.50;99.90;;;;;;4957902;28;20042;-82
2022/05/14 01:11:18;;;;;;;14.05;3.30;;;11.50;99.90;;;;;;4948007;29;20452;-82
2022/05/14 01:13:44;;;;;;;19.38;3.40;;;11.40;99.90;;;;;;4956008;29;20050;-82
2022/05/14 01:16:10;;;;;;;11.85;2.88;;;11.60;99.90;;;;;;4927766;28;20055;-82
2022/05/14 01:18:37;;;;;;;12.02;3.10;;;11.30;99.90;;;;;;4957852;28;20059;-87
2022/05/14 01:21:07;;;;;;;9.77;2.75;;;11.20;99.90;;;;;;4958002;28;20155;-83
2022/05/14 01:26:41;;;;;;;10.05;2.95;;;11.10;99.90;;;;;;4944494;28;20066;-83
2022/05/14 01:29:13;;;;;;;14.63;3.17;;;11.10;99.90;;;;;;4975146;28;20051;-82
2022/05/14 01:31:40;;;;;;;12.73;3.03;;;11.10;99.90;;;;;;4957374;28;20046;-86
2022/05/14 01:34:13;;;;;;;17.05;3.08;;;11.10;99.90;;;;;;4973796;28;20054;-83
2022/05/14 01:36:40;;;;;;;13.90;3.33;;;11.20;99.90;;;;;;4973571;28;20057;-82
2022/05/14 01:39:07;;;;;;;10.40;3.35;;;11.20;99.90;;;;;;4957598;28;20047;-82
2022/05/14 01:41:33;;;;;;;11.32;3.30;;;11.20;99.90;;;;;;4956569;28;20778;-83
2022/05/14 01:43:59;;;;;;;14.13;3.25;;;11.20;99.90;;;;;;4955908;28;20400;-82
2022/05/14 01:46:25;;;;;;;13.70;3.83;;;11.10;99.90;;;;;;4938263;29;20047;-83
2022/05/14 01:48:50;;;;;;;10.13;3.30;;;11.10;99.90;;;;;;4956076;28;20596;-81
2022/05/14 01:51:17;;;;;;;15.52;3.40;;;11.10;99.90;;;;;;4955083;29;20062;-82
2022/05/14 01:53:43;;;;;;;10.18;3.05;;;11.10;99.90;;;;;;4955604;28;20055;-82
2022/05/14 01:56:10;;;;;;;11.70;3.22;;;11.10;99.90;;;;;;4922181;29;20055;-82
2022/05/14 01:58:38;;;;;;;13.38;3.20;;;11.10;99.90;;;;;;4945220;28;20046;-82
2022/05/14 02:01:13;;;;;;;17.15;3.72;;;11.10;99.90;;;;;;4956330;28;20149;-82
2022/05/14 02:03:40;;;;;;;15.40;3.70;;;11.20;99.90;;;;;;4947190;29;20465;-82
2022/05/14 02:06:06;;;;;;;10.30;3.53;;;10.80;99.90;;;;;;4955812;28;20425;-81
2022/05/14 02:08:32;;;;;;;11.68;3.63;;;10.80;99.90;;;;;;4921807;29;20441;-82
2022/05/14 02:10:58;;;;;;;14.75;4.00;;;10.70;99.90;;;;;;4954721;29;20480;-82
2022/05/14 02:13:25;;;;;;;17.48;4.03;;;10.70;99.90;;;;;;4944490;28;20125;-83
2022/05/14 02:15:51;;;;;;;16.13;3.83;;;10.70;99.90;;;;;;4956500;28;20039;-82
2022/05/14 02:18:18;;;;;;;21.27;4.22;;;10.80;99.90;;;;;;4956310;28;20468;-82
2022/05/14 02:20:43;;;;;;;11.48;3.88;;;10.80;99.90;;;;;;4973592;28;20074;-82
2022/05/14 02:23:09;;;;;;;15.38;3.85;;;10.90;99.90;;;;;;4949704;28;20082;-82
2022/05/14 02:25:35;;;;;;;12.32;3.85;;;10.90;99.90;;;;;;4954416;29;20052;-88
2022/05/14 02:28:00;;;;;;;16.45;4.00;;;11.00;99.90;;;;;;4938971;28;20043;-83
2022/05/14 02:30:26;;;;;;;15.82;4.43;;;10.90;99.90;;;;;;4971961;28;20105;-81
2022/05/14 02:32:52;;;;;;;12.98;3.97;;;11.00;99.90;;;;;;4956662;28;20050;-82
2022/05/14 02:35:18;;;;;;;14.00;4.50;;;10.80;99.90;;;;;;4924114;29;20127;-82
2022/05/14 02:37:44;;;;;;;17.80;4.80;;;10.90;99.90;;;;;;4935324;29;20051;-81
2022/05/14 02:40:10;;;;;;;17.50;4.47;;;10.80;99.90;;;;;;4918085;29;20493;-82
2022/05/14 02:42:36;;;;;;;16.30;4.47;;;10.90;99.90;;;;;;4950435;28;20043;-83
2022/05/14 02:45:02;;;;;;;11.50;4.05;;;10.90;99.90;;;;;;4927430;28;20070;-81
2022/05/14 02:47:30;;;;;;;14.40;4.45;;;10.90;99.90;;;;;;4938508;28;20099;-81
2022/05/14 02:49:56;;;;;;;14.35;4.30;;;10.90;99.90;;;;;;4922485;28;20047;-82
2022/05/14 02:52:23;;;;;;;16.38;4.93;;;10.90;99.90;;;;;;4937019;29;20499;-87
2022/05/14 02:54:49;;;;;;;19.92;5.53;;;11.00;99.90;;;;;;4937300;29;20078;-82
2022/05/14 02:57:15;;;;;;;16.55;4.88;;;10.90;99.90;;;;;;4937487;29;20055;-82
2022/05/14 02:59:40;;;;;;;17.70;4.90;;;10.90;99.90;;;;;;4937069;29;20062;-83
2022/05/14 03:02:06;;;;;;;13.13;4.22;;;10.90;99.90;;;;;;4938347;29;20063;-82
2022/05/14 03:04:39;;;;;;;15.85;5.00;;;10.90;99.90;;;;;;4937177;29;20047;-81
2022/05/14 03:07:06;;;;;;;;;;;10.80;99.90;;;;;;4952539;28;20082;-82
2022/05/14 03:09:33;;;;;;;18.88;5.28;;;10.70;99.90;;;;;;4956093;28;19976;-83
2022/05/14 03:11:58;;;;;;;15.45;5.45;;;10.60;99.90;;;;;;4972683;28;20827;-82
2022/05/14 03:14:24;;;;;;;15.63;5.30;;;10.50;99.90;;;;;;4955927;28;20051;-82
2022/05/14 03:16:50;;;;;;;19.27;5.63;;;10.60;99.90;;;;;;4971722;28;20054;-82
2022/05/14 03:19:16;;;;;;;17.20;5.57;;;10.40;99.90;;;;;;4956300;28;20078;-81
2022/05/14 03:21:42;;;;;;;16.70;5.50;;;10.30;99.90;;;;;;4948827;29;20406;-82
2022/05/14 03:24:12;;;;;;;19.10;5.75;;;10.20;99.90;;;;;;4957315;28;20043;-82
2022/05/14 03:26:39;;;;;;;23.10;5.45;;;10.20;99.90;;;;;;4939779;28;20054;-81
2022/05/14 03:29:05;;;;;;;15.10;6.10;;;10.10;99.90;;;;;;4955747;28;20436;-82
2022/05/14 03:31:31;;;;;;;22.88;7.03;;;10.00;99.90;;;;;;4954365;28;20039;-82
2022/05/14 03:33:57;;;;;;;20.42;6.47;;;9.90;99.90;;;;;;4974880;28;20050;-83
2022/05/14 03:36:23;;;;;;;17.40;5.60;;;9.90;99.90;;;;;;4959228;28;20105;-82
2022/05/14 03:38:49;;;;;;;18.58;6.28;;;9.90;99.90;;;;;;4959114;28;20505;-82
2022/05/14 03:41:16;;;;;;;16.13;6.47;;;9.90;99.90;;;;;;4976671;28;20047;-83
2022/05/14 03:43:44;;;;;;;23.65;6.93;;;9.80;99.90;;;;;;4976965;28;20046;-82
2022/05/14 03:46:10;;;;;;;21.23;6.57;;;9.80;99.90;;;;;;4951405;29;20051;-82
2022/05/14 03:48:36;;;;;;;20.90;6.43;;;9.80;99.90;;;;;;4958328;28;20104;-82
2022/05/14 03:51:03;;;;;;;27.33;7.43;;;9.80;99.90;;;;;;4940122;29;20051;-81
2022/05/14 03:53:29;;;;;;;27.63;6.45;;;9.70;99.90;;;;;;4967888;28;20497;-82
2022/05/14 03:55:56;;;;;;;15.70;6.22;;;9.70;99.90;;;;;;4959444;28;20073;-84
2022/05/14 03:58:22;;;;;;;23.48;7.25;;;9.70;99.90;;;;;;4958922;28;20408;-83
2022/05/14 04:00:48;;;;;;;23.42;6.82;;;9.70;99.90;;;;;;4956964;28;20051;-82
2022/05/14 04:03:14;;;;;;;25.60;6.00;;;9.70;99.90;;;;;;4945190;28;20046;-82
2022/05/14 04:05:40;;;;;;;22.77;6.72;;;9.60;99.90;;;;;;4953947;29;20425;-82
2022/05/14 04:08:05;;;;;;;25.58;6.95;;;9.90;99.90;;;;;;4941820;28;20055;-82
2022/05/14 04:10:32;;;;;;;24.80;7.70;;;9.70;99.90;;;;;;4966318;28;20050;-82
2022/05/14 04:12:58;;;;;;;27.27;7.18;;;9.70;99.90;;;;;;4939848;29;20051;-81
2022/05/14 04:15:25;;;;;;;22.35;7.30;;;9.70;99.90;;;;;;4939758;29;20047;-82
2022/05/14 04:17:52;;;;;;;17.33;6.82;;;9.70;99.90;;;;;;4957726;28;20055;-81
2022/05/14 04:20:18;;;;;;;21.58;7.82;;;9.70;99.90;;;;;;4972374;28;20460;-81
2022/05/14 04:22:44;;;;;;;17.88;6.93;;;9.60;99.90;;;;;;4975784;28;20093;-81
2022/05/14 04:25:11;;;;;;;20.23;7.40;;;9.60;99.90;;;;;;4970838;28;20118;-83
2022/05/14 04:27:40;;;;;;;32.88;7.95;;;9.70;99.90;;;;;;4939249;29;20055;-82
2022/05/14 04:30:07;;;;;;;24.00;7.95;;;9.70;99.90;;;;;;4956720;29;20114;-82
2022/05/14 04:32:32;;;;;;;26.92;8.60;;;9.70;99.90;;;;;;4925438;28;20047;-82
2022/05/14 04:34:58;;;;;;;16.17;7.38;;;9.80;99.90;;;;;;4956882;28;20062;-82
2022/05/14 04:37:24;;;;;;;30.42;7.60;;;9.70;99.90;;;;;;4940074;29;20146;-82
2022/05/14 04:39:49;;;;;;;24.30;7.07;;;9.70;99.90;;;;;;4939823;29;20397;-82
2022/05/14 04:42:16;;;;;;;25.85;8.05;;;10.00;99.90;;;;;;4939083;29;20401;-82
2022/05/14 04:44:42;;;;;;;21.60;7.10;;;9.90;99.90;;;;;;4938398;28;20051;-82
2022/05/14 04:47:09;;;;;;;28.52;8.25;;;9.80;99.90;;;;;;4928472;28;20389;-81
2022/05/14 04:49:43;;;;;;;26.02;8.55;;;9.90;99.90;;;;;;4958673;28;20062;-82
2022/05/14 04:52:09;;;;;;;24.00;8.15;;;10.00;99.90;;;;;;4953069;29;20436;-84
2022/05/14 04:54:35;;;;;;;23.58;7.90;;;10.00;99.90;;;;;;4939373;29;20061;-82
2022/05/14 04:57:01;;;;;;;26.02;8.27;;;10.00;99.90;;;;;;4939241;29;20043;-81
2022/05/14 04:59:27;;;;;;;29.38;9.02;;;10.10;99.90;;;;;;4945365;28;20472;-82
2022/05/14 05:04:45;;;;;;;24.70;8.02;;;10.20;99.90;;;;;;4938846;29;20066;-81
2022/05/14 05:07:11;;;;;;;23.90;8.02;;;10.40;99.90;;;;;;4955921;29;20507;-82
2022/05/14 05:09:37;;;;;;;31.70;8.60;;;10.40;99.90;;;;;;4956361;28;20058;-81
2022/05/14 05:12:03;;;;;;;19.85;7.95;;;10.40;99.90;;;;;;4974862;28;20055;-81
2022/05/14 05:14:29;;;;;;;25.20;8.50;;;10.50;99.90;;;;;;4957929;28;20038;-85
2022/05/14 05:16:55;;;;;;;23.38;8.55;;;10.50;99.90;;;;;;4974996;28;20097;-83
2022/05/14 05:19:20;;;;;;;25.52;9.00;;;10.60;99.90;;;;;;4973409;28;20051;-83
2022/05/14 05:21:48;;;;;;;25.98;8.48;;;10.70;99.90;;;;;;4956625;28;20047;-82
2022/05/14 05:24:13;;;;;;;27.13;9.00;;;10.70;99.90;;;;;;4939055;29;20058;-82
2022/05/14 05:26:39;;;;;;;31.02;9.32;;;10.80;99.90;;;;;;4955377;29;20133;-83
2022/05/14 05:29:05;;;;;;;23.55;9.10;;;10.90;99.90;;;;;;4938738;29;20051;-81
2022/05/14 05:31:33;;;;;;;26.80;8.80;;;11.00;99.90;;;;;;4970835;28;20050;-82
2022/05/14 05:33:59;;;;;;;27.90;8.55;;;11.00;99.90;;;;;;4951732;29;20043;-82
2022/05/14 05:36:25;;;;;;;25.52;8.70;;;11.10;99.90;;;;;;4955509;29;20150;-83
2022/05/14 05:38:51;;;;;;;26.17;8.50;;;11.20;99.90;;;;;;4939216;28;20043;-82
2022/05/14 05:41:18;;;;;;;25.27;8.27;;;11.20;99.90;;;;;;4974755;28;20540;-82
2022/05/14 05:43:44;;;;;;;25.33;8.20;;;11.30;99.90;;;;;;4973434;28;20097;-82
2022/05/14 05:46:11;;;;;;;19.23;7.80;;;11.40;99.90;;;;;;4957460;28;20047;-82
2022/05/14 05:48:37;;;;;;;28.55;8.88;;;11.40;99.90;;;;;;4954260;28;20053;-82
2022/05/14 05:51:04;;;;;;;25.95;7.88;;;11.50;99.90;;;;;;4938506;29;20230;-82
2022/05/14 05:59:00;;;;;;;25.48;8.10;;;11.70;99.90;;;;;;4944028;29;20133;-83
2022/05/14 06:01:26;;;;;;;23.45;8.02;;;11.80;99.90;;;;;;4956739;28;20131;-83
2022/05/14 06:03:52;;;;;;;22.40;8.30;;;11.90;99.90;;;;;;4935551;28;20125;-82
2022/05/14 06:06:19;;;;;;;25.42;8.35;;;11.90;99.90;;;;;;4956602;28;20131;-82
2022/05/14 06:08:45;;;;;;;19.80;8.05;;;11.90;99.90;;;;;;4954572;29;20481;-83
2022/05/14 06:11:10;;;;;;;27.17;8.68;;;11.90;99.90;;;;;;4954933;29;20373;-82
2022/05/14 06:13:36;;;;;;;26.30;8.93;;;12.10;99.90;;;;;;4938890;29;20106;-82
2022/05/14 06:16:02;;;;;;;31.30;8.57;;;12.30;99.90;;;;;;4939115;28;20055;-82
2022/05/14 06:18:27;;;;;;;26.90;8.63;;;11.90;99.90;;;;;;4973572;28;20043;-83
2022/05/14 06:20:53;;;;;;;25.33;8.60;;;12.00;99.90;;;;;;4956842;28;20093;-82
2022/05/14 06:23:19;;;;;;;25.85;8.70;;;12.10;99.90;;;;;;4973800;28;20081;-83
2022/05/14 06:25:45;;;;;;;22.33;8.43;;;11.90;99.90;;;;;;4956614;28;20058;-82
2022/05/14 06:28:11;;;;;;;26.88;8.88;;;12.00;99.90;;;;;;4958459;28;20043;-82
2022/05/14 06:30:41;;;;;;;21.98;8.57;;;12.20;99.90;;;;;;4938539;29;20134;-83
2022/05/14 06:33:08;;;;;;;24.33;8.48;;;12.70;99.90;;;;;;4938290;29;20050;-82
2022/05/14 06:35:36;;;;;;;30.13;9.32;;;13.40;99.90;;;;;;4955591;29;20106;-82
2022/05/14 06:38:03;;;;;;;21.30;7.68;;;13.60;99.90;;;;;;4939748;29;20051;-82
2022/05/14 06:40:29;;;;;;;24.70;7.63;;;13.90;99.90;;;;;;4956596;29;20097;-83
2022/05/14 06:42:55;;;;;;;24.60;8.68;;;14.10;99.90;;;;;;4956257;28;20054;-82
2022/05/14 06:45:21;;;;;;;28.13;7.90;;;14.30;99.90;;;;;;4955915;29;20043;-86
2022/05/14 06:47:47;;;;;;;25.42;8.10;;;14.80;99.90;;;;;;4957206;29;20043;-83
2022/05/14 06:50:12;;;;;;;25.80;7.57;;;15.30;99.90;;;;;;4939050;29;20500;-83
2022/05/14 06:52:42;;;;;;;27.17;7.38;;;15.80;99.90;;;;;;4939713;28;20044;-83
2022/05/14 06:55:10;;;;;;;21.75;7.07;;;16.20;99.90;;;;;;4940458;28;20130;-84
2022/05/14 06:57:37;;;;;;;24.27;6.90;;;16.60;99.90;;;;;;4941400;29;20482;-83
2022/05/14 07:00:05;;;;;;;21.88;7.05;;;17.00;99.90;;;;;;4923702;29;20146;-83
2022/05/14 07:02:31;;;;;;;22.15;6.82;;;17.20;99.90;;;;;;4939406;28;20441;-84
2022/05/14 07:07:42;;;;;;;17.60;6.30;;;18.20;99.90;;;;;;4940492;29;20055;-82
2022/05/14 07:10:08;;;;;;;20.17;7.00;;;18.80;99.90;;;;;;4942317;29;20058;-83
2022/05/14 07:12:37;;;;;;;22.08;6.50;;;19.40;99.90;;;;;;4941672;29;20483;-83
2022/05/14 07:15:04;;;;;;;18.48;6.25;;;19.80;99.90;;;;;;4942648;29;20051;-82
2022/05/14 07:17:31;;;;;;;21.02;5.65;;;20.30;99.90;;;;;;4940920;29;20508;-83
2022/05/14 07:19:56;;;;;;;21.27;6.57;;;20.80;99.90;;;;;;4940961;29;20063;-85
2022/05/14 07:22:23;;;;;;;21.90;6.95;;;21.20;99.90;;;;;;4941092;29;20062;-83
2022/05/14 07:24:50;;;;;;;21.95;6.75;;;21.40;99.90;;;;;;4942189;29;20134;-84
2022/05/14 07:27:16;;;;;;;24.45;5.75;;;21.40;99.90;;;;;;4958119;29;20473;-83
2022/05/14 07:29:44;;;;;;;19.55;5.40;;;21.50;99.90;;;;;;4940765;29;20051;-85
2022/05/14 07:32:12;;;;;;;19.58;5.35;;;21.40;99.90;;;;;;4941056;29;20051;-84
2022/05/14 07:34:38;;;;;;;23.50;6.13;;;21.50;99.90;;;;;;4940655;28;20050;-86
2022/05/14 07:37:06;;;;;;;21.70;5.95;;;21.50;99.90;;;;;;4921785;29;20056;-85
2022/05/14 07:39:40;;;;;;;20.50;5.38;;;21.30;99.90;;;;;;4906021;29;20047;-84
2022/05/14 07:42:13;;;;;;;25.27;5.63;;;21.30;99.90;;;;;;4921878;29;20066;-83
2022/05/14 07:44:43;;;;;;;27.08;5.97;;;21.40;99.90;;;;;;4921441;29;20505;-84
2022/05/14 07:47:09;;;;;;;25.35;5.80;;;21.60;99.90;;;;;;4936849;28;20129;-83
2022/05/14 07:49:36;;;;;;;17.98;5.13;;;22.10;96.80;;;;;;4959639;28;20043;-84
2022/05/14 07:52:02;;;;;;;21.13;5.60;;;22.40;92.50;;;;;;4976969;28;20086;-83
2022/05/14 07:54:28;;;;;;;19.35;5.38;;;22.70;82.90;;;;;;4959542;28;20134;-85
2022/05/14 07:57:07;;;;;;;;;;;;;;;;;;;;;
2022/05/14 07:59:36;;;;;;;20.85;4.97;;;22.60;79.20;;;;;;4959272;28;20059;-85
2022/05/14 08:02:18;;;;;;;16.40;4.20;;;23.10;76.20;;;;;;4943663;28;20104;-84
2022/05/14 08:04:44;;;;;;;24.77;6.05;;;23.40;63.20;;;;;;4959449;28;20072;-84
2022/05/14 08:07:10;;;;;;;20.98;5.03;;;23.40;66.70;;;;;;4953598;28;20102;-84
2022/05/14 08:09:35;;;;;;;21.90;5.43;;;23.70;66.60;;;;;;4943023;28;20050;-85
2022/05/14 08:12:01;;;;;;;19.52;4.90;;;24.20;64.50;;;;;;4957578;28;20050;-83
2022/05/14 08:14:28;;;;;;;15.40;4.32;;;24.60;61.90;;;;;;4976073;28;20061;-85
2022/05/14 08:16:54;;;;;;;15.70;4.85;;;24.90;58.00;;;;;;4940046;28;20066;-86
2022/05/14 08:19:19;;;;;;;18.80;4.88;;;25.10;56.30;;;;;;4923651;29;20059;-84
2022/05/14 08:24:34;;;;;;;19.33;5.63;;;25.10;56.50;;;;;;4939642;29;20073;-84
2022/05/14 08:27:06;;;;;;;19.42;4.68;;;25.30;57.40;;;;;;4923573;29;20043;-85
2022/05/14 08:29:38;;;;;;;17.45;5.05;;;25.60;55.70;;;;;;4940017;29;20118;-85
2022/05/14 08:32:05;;;;;;;19.95;4.40;;;26.10;54.90;;;;;;4940041;29;20083;-84
2022/05/14 08:34:31;;;;;;;18.02;4.97;;;26.00;53.50;;;;;;4939686;29;20466;-85
2022/05/14 08:36:58;;;;;;;17.80;4.68;;;25.80;53.00;;;;;;4939773;29;20134;-85
2022/05/14 08:39:25;;;;;;;15.55;4.50;;;24.70;54.70;;;;;;4940606;28;20046;-84
2022/05/14 08:41:52;;;;;;;21.10;4.68;;;24.40;57.10;;;;;;4955862;28;20058;-85
2022/05/14 08:44:23;;;;;;;16.45;4.47;;;24.00;58.40;;;;;;4956719;28;20137;-85
2022/05/14 08:47:08;;;;;;;18.85;4.93;;;24.30;58.00;;;;;;4942456;29;20073;-85
2022/05/14 08:50:16;;;;;;;19.92;5.18;;;24.70;55.30;;;;;;4939223;29;20077;-85
2022/05/14 08:52:55;;;;;;;20.05;4.47;;;25.50;53.10;;;;;;4924534;29;20055;-84
2022/05/14 08:55:22;;;;;;;20.42;4.75;;;25.90;51.60;;;;;;4950126;28;20059;-85
2022/05/14 08:57:57;;;;;;;15.25;4.60;;;26.20;51.00;;;;;;4944544;29;20059;-85
2022/05/14 09:00:23;;;;;;;16.92;4.82;;;26.60;49.70;;;;;;4923873;29;20043;-86
2022/05/14 09:02:51;;;;;;;19.52;5.20;;;27.00;48.40;;;;;;4939259;29;20043;-85
2022/05/14 09:05:19;;;;;;;15.10;4.30;;;27.10;48.10;;;;;;4938789;29;20126;-83
2022/05/14 09:07:46;;;;;;;28.30;4.72;;;26.90;48.50;;;;;;4939568;28;20547;-84
2022/05/14 09:10:25;;;;;;;18.45;3.85;;;26.40;49.30;;;;;;4939048;29;20043;-85
2022/05/14 09:13:01;;;;;;;20.67;4.73;;;25.70;50.00;;;;;;4938988;29;20051;-84
2022/05/14 09:15:31;;;;;;;19.92;4.63;;;24.70;51.40;;;;;;4938871;29;20047;-84
2022/05/14 09:18:12;;;;;;;24.70;4.63;;;23.90;53.00;;;;;;4939759;29;20050;-84
2022/05/14 09:20:41;;;;;;;18.27;4.82;;;23.30;55.70;;;;;;4939095;29;20058;-85
2022/05/14 09:23:07;;;;;;;24.17;5.18;;;22.80;59.10;;;;;;4939204;29;20051;-84
2022/05/14 09:25:38;;;;;;;20.85;5.00;;;22.80;59.80;;;;;;4923395;29;20405;-85
2022/05/14 09:28:11;;;;;;;17.10;4.43;;;22.70;59.90;;;;;;4939827;29;20039;-85
2022/05/14 09:30:43;;;;;;;17.73;4.13;;;22.30;62.50;;;;;;4953614;28;20053;-85
2022/05/14 09:33:27;;;;;;;20.77;4.72;;;23.10;61.90;;;;;;4946296;28;20047;-85
2022/05/14 09:35:56;;;;;;;20.75;5.13;;;24.20;58.50;;;;;;4947021;29;20043;-85
2022/05/14 09:38:23;;;;;;;20.23;4.90;;;24.70;55.40;;;;;;4938340;29;20134;-86
2022/05/14 09:40:50;;;;;;;20.30;5.20;;;25.50;52.40;;;;;;4938621;29;20047;-85
2022/05/14 09:43:16;;;;;;;15.98;4.57;;;26.50;51.80;;;;;;4938513;29;20070;-85
2022/05/14 09:45:56;;;;;;;21.55;4.82;;;27.10;49.40;;;;;;4924832;28;20046;-85
2022/05/14 09:48:28;;;;;;;18.83;4.60;;;26.70;49.50;;;;;;4938626;29;20485;-86
2022/05/14 09:51:08;;;;;;;25.25;4.75;;;25.80;50.30;;;;;;4938240;29;20134;-84
2022/05/14 09:53:43;;;;;;;15.60;4.63;;;24.70;53.10;;;;;;4938156;29;20051;-85
2022/05/14 09:56:42;;;;;;;24.27;5.10;;;24.70;55.20;;;;;;4939303;29;20051;-84
2022/05/14 09:59:39;;;;;;;21.30;4.60;;;25.70;52.90;;;;;;4920760;29;20054;-85
2022/05/14 10:02:15;;;;;;;17.73;4.47;;;26.70;49.70;;;;;;4943849;28;20404;-86
2022/05/14 10:04:59;;;;;;;18.75;4.30;;;26.10;49.80;;;;;;4957223;28;20058;-89
2022/05/14 10:07:38;;;;;;;16.50;4.15;;;26.00;50.70;;;;;;4956906;28;20054;-85
2022/05/14 10:10:32;;;;;;;18.75;4.38;;;26.50;49.50;;;;;;4957187;28;20051;-84
2022/05/14 10:13:14;;;;;;;21.33;5.38;;;27.50;46.50;;;;;;4946299;29;20047;-85
2022/05/14 10:15:59;;;;;;;19.67;4.03;;;27.10;46.00;;;;;;4922263;29;20079;-85
2022/05/14 10:18:44;;;;;;;20.63;4.53;;;26.00;48.20;;;;;;4932336;28;20129;-84
2022/05/14 10:21:51;;;;;;;20.02;4.32;;;25.40;49.90;;;;;;4950687;29;20051;-84
2022/05/14 10:27:33;;;;;;;17.67;3.85;;;25.50;49.70;;;;;;4955847;28;20416;-84
2022/05/14 10:30:25;;;;;;;17.27;4.57;;;26.50;47.80;;;;;;4956442;28;20054;-87
2022/05/14 10:33:03;;;;;;;19.35;4.43;;;26.80;45.60;;;;;;4956419;28;20568;-86
2022/05/14 10:35:39;;;;;;;14.13;3.97;;;26.90;46.00;;;;;;4947108;29;20146;-85
2022/05/14 10:38:13;;;;;;;17.10;4.10;;;27.10;45.30;;;;;;4943480;28;20082;-83
2022/05/14 10:40:40;;;;;;;19.50;3.80;;;26.50;45.70;;;;;;4956669;28;20133;-87
2022/05/14 10:43:12;;;;;;;13.65;4.10;;;25.70;47.10;;;;;;4953063;28;20079;-85
2022/05/14 10:45:44;;;;;;;14.10;3.90;;;24.90;49.40;;;;;;4942103;28;20055;-85
2022/05/14 10:48:28;;;;;;;15.52;4.35;;;24.40;50.20;;;;;;4945869;29;20077;-88
2022/05/14 10:50:53;;;;;;;17.63;4.07;;;24.80;50.70;;;;;;4918283;29;20378;-86
2022/05/14 10:53:20;;;;;;;24.20;4.75;;;25.50;49.70;;;;;;4923222;29;20186;-87
2022/05/14 10:55:55;;;;;;;19.63;4.40;;;25.20;49.10;;;;;;4930411;28;20043;-85
2022/05/14 10:58:53;;;;;;;15.43;4.20;;;25.30;50.30;;;;;;4940254;28;20053;-85
2022/05/14 11:01:30;;;;;;;15.20;3.92;;;26.40;47.80;;;;;;4956663;28;20046;-86
2022/05/14 11:04:22;;;;;;;20.05;4.53;;;27.60;45.30;;;;;;4940800;28;20113;-89
2022/05/14 11:06:59;;;;;;;18.83;4.15;;;28.50;43.50;;;;;;4971569;28;20476;-85
2022/05/14 11:09:31;;;;;;;16.15;3.70;;;28.10;42.50;;;;;;4940780;28;20042;-84
2022/05/14 11:12:01;;;;;;;21.63;4.70;;;26.90;44.00;;;;;;4929229;29;20056;-84
2022/05/14 11:14:43;;;;;;;28.88;5.28;;;25.80;45.30;;;;;;4920098;29;20124;-86
2022/05/14 11:17:23;;;;;;;19.48;4.72;;;24.70;47.90;;;;;;4955310;28;20039;-86
2022/05/14 11:20:10;;;;;;;19.70;4.32;;;24.00;50.10;;;;;;4937153;29;20516;-85
2022/05/14 11:22:42;;;;;;;21.17;4.38;;;25.00;50.30;;;;;;4937217;29;20049;-86
2022/05/14 11:25:12;;;;;;;20.85;4.18;;;26.10;47.80;;;;;;4937495;29;20379;-86
2022/05/14 11:27:39;;;;;;;17.00;4.15;;;26.40;45.60;;;;;;4937275;29;20050;-86
2022/05/14 11:30:09;;;;;;;14.70;5.25;;;25.70;45.80;;;;;;4937177;29;20466;-87
2022/05/14 11:32:53;;;;;;;20.10;5.05;;;25.00;47.20;;;;;;4953857;28;20054;-85
2022/05/14 11:35:20;;;;;;;19.85;4.88;;;24.40;48.80;;;;;;4933925;28;20043;-84
2022/05/14 11:37:51;;;;;;;14.55;4.22;;;23.80;50.80;;;;;;4956712;28;20057;-85
2022/05/14 11:40:20;;;;;;;14.75;4.25;;;24.30;49.60;;;;;;4957043;28;20078;-83
2022/05/14 11:42:48;;;;;;;18.98;4.50;;;24.50;48.20;;;;;;4942069;28;20058;-84
2022/05/14 11:45:24;;;;;;;17.33;3.92;;;24.50;48.70;;;;;;4951175;28;20397;-84
2022/05/14 11:48:20;;;;;;;18.33;4.63;;;25.90;47.60;;;;;;4939056;29;20106;-84
2022/05/14 11:50:53;;;;;;;16.00;3.63;;;27.80;45.00;;;;;;4936363;29;20091;-85
2022/05/14 11:53:38;;;;;;;20.23;4.80;;;29.40;42.70;;;;;;4955001;28;20138;-84
2022/05/14 11:56:25;;;;;;;16.38;4.25;;;30.30;40.00;;;;;;4959257;28;20146;-84
2022/05/14 11:59:05;;;;;;;25.90;4.38;;;29.90;40.00;;;;;;4962978;28;20116;-84
2022/05/14 12:01:36;;;;;;;16.27;3.63;;;29.50;40.30;;;;;;4965156;28;20047;-86
2022/05/14 12:04:11;;;;;;;21.77;4.47;;;29.90;40.60;;;;;;4959814;28;20055;-84
2022/05/14 12:06:55;;;;;;;16.98;4.57;;;30.10;38.70;;;;;;4943394;28;20138;-85
2022/05/14 12:09:48;;;;;;;19.83;4.72;;;28.90;39.50;;;;;;4959097;28;20055;-85
2022/05/14 12:12:32;;;;;;;18.67;4.45;;;27.80;41.20;;;;;;4957582;28;20065;-83
2022/05/14 12:15:06;;;;;;;20.13;4.53;;;27.70;42.20;;;;;;4959303;28;20054;-83
2022/05/14 12:17:32;;;;;;;75.05;7.25;;;27.50;42.50;;;;;;4945467;29;20488;-83
2022/05/14 12:19:58;;;;;;;30.42;4.80;;;26.90;43.30;;;;;;4939625;29;20456;-84
2022/05/14 12:22:29;;;;;;;18.38;4.45;;;27.50;43.90;;;;;;4942769;29;20386;-83
2022/05/14 12:24:57;;;;;;;17.42;4.00;;;27.60;42.60;;;;;;4969839;28;20043;-83
2022/05/14 12:27:25;;;;;;;18.48;4.28;;;26.60;43.20;;;;;;4951678;29;20047;-83
2022/05/14 12:29:58;;;;;;;20.65;4.07;;;26.00;43.30;;;;;;4955596;29;20051;-84
2022/05/14 12:35:23;;;;;;;13.52;4.45;;;25.30;45.50;;;;;;4942753;29;20051;-85
2022/05/14 12:37:54;;;;;;;16.95;3.97;;;24.90;45.60;;;;;;4956705;29;20401;-83
2022/05/14 12:40:36;;;;;;;16.67;4.32;;;24.40;46.90;;;;;;4946480;29;20382;-84
2022/05/14 12:43:05;;;;;;;19.13;4.40;;;24.00;48.40;;;;;;4939177;29;20535;-84
2022/05/14 12:45:37;;;;;;;20.63;4.47;;;23.70;48.80;;;;;;4958028;28;20062;-82
2022/05/14 12:48:04;;;;;;;18.08;4.30;;;23.40;50.10;;;;;;4975750;28;20055;-82
2022/05/14 12:50:35;;;;;;;17.80;4.43;;;23.30;50.60;;;;;;4958997;28;20046;-83
2022/05/14 12:53:07;;;;;;;18.75;4.32;;;23.00;51.00;;;;;;4943069;28;20059;-83
2022/05/14 12:55:41;;;;;;;26.15;4.32;;;22.70;51.40;;;;;;4975643;28;20120;-82
2022/05/14 12:58:11;;;;;;;20.50;4.45;;;22.50;52.60;;;;;;4944730;29;20469;-84
2022/05/14 13:00:39;;;;;;;21.92;4.35;;;22.40;54.10;;;;;;4939595;29;20062;-83
2022/05/14 13:03:20;;;;;;;19.08;3.65;;;23.00;52.60;;;;;;4923330;29;20054;-82
2022/05/14 13:05:56;;;;;;;20.33;4.13;;;23.30;51.50;;;;;;4922361;29;20102;-84
2022/05/14 13:08:24;;;;;;;18.95;3.85;;;23.20;51.00;;;;;;4938552;29;20179;-82
2022/05/14 13:10:56;;;;;;;17.00;4.00;;;22.80;51.50;;;;;;4958687;28;20089;-83
2022/05/14 13:13:39;;;;;;;21.05;3.75;;;22.60;53.10;;;;;;4940082;29;20063;-82
2022/05/14 13:16:31;;;;;;;22.15;4.25;;;22.50;53.10;;;;;;4925788;28;20047;-84
2022/05/14 13:19:27;;;;;;;13.48;4.07;;;22.50;53.10;;;;;;4916869;29;20063;-82
2022/05/14 13:21:55;;;;;;;18.30;3.78;;;22.70;53.90;;;;;;4943533;29;20059;-83